Mirage, Nebraska
Current Conditions -  °F | °C
As of 3:35 AM on Thursday 27 Nov 2014 (Local Time) from KHDE Reporting Station
Scattered Clouds Scattered Clouds  
Wind Chill: 20°   Ceiling: Unl
Heat Index: 20°   Visibility: 10mi
Dew Point: 14°   Wind: 0mph
Humidity: 78%   Direction: NA
Pressure: 30.41"   Gusts: NA
Location:  40.5474°N, 99.1227°W
Report Text: KHDE 270935Z AUTO 00000KT 10SM SCT100 M07/M10 A3041 RMK AO2 T10661098
Loading
Personal Weather Stations






























Interactive Weather Map New forecast layout! Learn more

10-Day Weather Forecast

Advertisements
Track Severe Weather on mobile